Time;durP1;ratioP1;P1;durP2;ratioP2;P2;SDS_P1;SDS_P2;PMS_P1;PMS_P2;Temp;Humidity;BMP_temperature;BMP_pressure;BME280_temperature;BME280_humidity;BME280_pressure;Samples;Min_cycle;Max_cycle;Signal;HPM_P1;HPM_P2
2023/08/13 00:01:24;;;;;;;;;;;;;;;16.81;78.75;101616.28;5107703;27;1266;-73
2023/08/13 00:03:49;;;;;;;;;;;;;;;16.83;79.15;101615.16;5125543;27;1055;-74
2023/08/13 00:06:14;;;;;;;;;;;;;;;16.80;78.96;101615.44;5122706;27;977;-75
2023/08/13 00:08:39;;;;;;;;;;;;;;;16.79;78.94;101619.03;5124144;27;1901;-73
2023/08/13 00:11:14;;;;;;;;;;;;;;;16.80;79.18;101625.91;5120214;27;1066;-75
2023/08/13 00:13:40;;;;;;;;;;;;;;;16.78;79.39;101616.56;5113100;27;948;-75
2023/08/13 00:16:05;;;;;;;;;;;;;;;16.73;78.92;101614.38;5114940;27;1058;-75
2023/08/13 00:18:32;;;;;;;;;;;;;;;16.71;79.44;101618.97;5095710;27;1205;-74
2023/08/13 00:20:57;;;;;;;;;;;;;;;16.67;79.60;101614.94;5114769;27;1098;-75
2023/08/13 00:23:22;;;;;;;;;;;;;;;16.63;79.10;101609.19;5093397;28;1345;-73
2023/08/13 00:25:47;;;;;;;;;;;;;;;16.58;79.57;101610.59;5096154;27;1303;-74
2023/08/13 00:28:13;;;;;;;;;;;;;;;16.56;79.42;101607.28;5111844;27;1893;-73
2023/08/13 00:30:38;;;;;;;;;;;;;;;16.56;79.73;101607.28;5115113;27;1136;-74
2023/08/13 00:33:03;;;;;;;;;;;;;;;16.58;79.84;101605.34;5116124;27;1176;-74
2023/08/13 00:35:28;;;;;;;;;;;;;;;16.59;79.69;101609.63;5095809;28;1412;-74
2023/08/13 00:37:53;;;;;;;;;;;;;;;16.56;80.10;101607.28;5113751;27;1096;-73
2023/08/13 00:40:19;;;;;;;;;;;;;;;16.55;79.80;101616.94;5094252;28;1215;-74
2023/08/13 00:42:44;;;;;;;;;;;;;;;16.53;79.82;101602.34;5111490;28;1099;-75
2023/08/13 00:45:09;;;;;;;;;;;;;;;16.51;79.75;101609.50;5108570;28;916;-75
2023/08/13 00:47:35;;;;;;;;;;;;;;;16.48;79.83;101612.41;5108504;28;1905;-73
2023/08/13 00:50:02;;;;;;;;;;;;;;;16.44;80.10;101610.06;5106648;28;1132;-75
2023/08/13 00:52:28;;;;;;;;;;;;;;;16.44;80.15;101609.25;5097840;28;1158;-73
2023/08/13 00:54:53;;;;;;;;;;;;;;;16.45;80.35;101611.72;5125931;28;1063;-74
2023/08/13 00:57:18;;;;;;;;;;;;;;;16.43;79.99;101611.03;5126411;28;1088;-73
2023/08/13 00:59:44;;;;;;;;;;;;;;;16.45;80.26;101619.56;5109397;28;1508;-73
2023/08/13 01:02:09;;;;;;;;;;;;;;;16.41;80.55;101615.63;5125450;28;1085;-74
2023/08/13 01:04:34;;;;;;;;;;;;;;;16.37;80.72;101619.47;5126807;28;1066;-74
2023/08/13 01:07:25;;;;;;;;;;;;;;;16.37;80.53;101614.25;5122918;28;1929;-75
2023/08/13 01:09:53;;;;;;;;;;;;;;;16.37;80.70;101619.47;5116869;28;1055;-73
2023/08/13 01:12:32;;;;;;;;;;;;;;;16.34;80.93;101609.28;5099580;28;1295;-74
2023/08/13 01:15:13;;;;;;;;;;;;;;;16.31;80.50;101614.81;5100887;28;1278;-74
2023/08/13 01:17:39;;;;;;;;;;;;;;;16.25;80.72;101604.91;5122827;27;1084;-74
2023/08/13 01:20:07;;;;;;;;;;;;;;;16.27;80.95;101607.38;5121480;27;1086;-74
2023/08/13 01:22:37;;;;;;;;;;;;;;;16.20;80.91;101597.50;5120794;27;1029;-73
2023/08/13 01:25:02;;;;;;;;;;;;;;;16.19;81.03;101600.25;5121045;27;1097;-74
2023/08/13 01:27:46;;;;;;;;;;;;;;;16.16;81.25;101600.53;5102326;28;1909;-73
2023/08/13 01:30:17;;;;;;;;;;;;;;;16.13;81.27;101598.22;5100727;27;1134;-73
2023/08/13 01:32:50;;;;;;;;;;;;;;;16.11;81.65;101606.19;5120797;27;1179;-74
2023/08/13 01:35:18;;;;;;;;;;;;;;;16.14;81.68;101597.25;5119032;27;1078;-73
2023/08/13 01:37:43;;;;;;;;;;;;;;;16.13;81.56;101598.22;5118143;27;1036;-73
2023/08/13 01:40:09;;;;;;;;;;;;;;;16.09;81.57;101607.31;5118533;27;1090;-73
2023/08/13 01:42:34;;;;;;;;;;;;;;;16.07;81.59;101601.41;5098116;28;1365;-73
2023/08/13 01:44:59;;;;;;;;;;;;;;;16.03;81.78;101605.25;5116954;27;1167;-75
2023/08/13 01:47:24;;;;;;;;;;;;;;;16.01;82.10;101607.19;5114667;27;1889;-74
2023/08/13 01:49:50;;;;;;;;;;;;;;;15.98;82.21;101602.25;5115318;27;1080;-74
2023/08/13 01:52:15;;;;;;;;;;;;;;;15.93;82.31;101611.31;5114494;27;1197;-75
2023/08/13 01:54:40;;;;;;;;;;;;;;;15.92;82.41;101617.53;5112438;27;1024;-73
2023/08/13 01:57:05;;;;;;;;;;;;;;;15.95;82.99;101620.84;5113425;27;1118;-74
2023/08/13 01:59:30;;;;;;;;;;;;;;;15.95;82.85;101615.63;5132904;27;1065;-73
2023/08/13 02:01:55;;;;;;;;;;;;;;;15.91;82.68;101610.66;5132047;27;1105;-74
2023/08/13 02:04:21;;;;;;;;;;;;;;;15.88;82.92;101612.72;5128388;27;1082;-74
2023/08/13 02:06:46;;;;;;;;;;;;;;;15.86;82.86;101615.47;5128493;27;1117;-74
2023/08/13 02:09:11;;;;;;;;;;;;;;;15.84;82.94;101616.59;5105710;27;1957;-73
2023/08/13 02:11:36;;;;;;;;;;;;;;;15.83;82.81;101615.78;5125562;27;1081;-74
2023/08/13 02:14:02;;;;;;;;;;;;;;;15.82;83.30;101613.28;5124385;27;1262;-75
2023/08/13 02:16:27;;;;;;;;;;;;;;;15.79;83.64;101605.72;5122122;27;1105;-75
2023/08/13 02:18:52;;;;;;;;;;;;;;;15.80;83.38;101615.22;5124137;27;1074;-74
2023/08/13 02:21:18;;;;;;;;;;;;;;;15.79;83.65;101606.53;5121417;27;1050;-73
2023/08/13 02:23:43;;;;;;;;;;;;;;;15.78;83.58;101611.94;5124156;27;1163;-73
2023/08/13 02:26:08;;;;;;;;;;;;;;;15.76;83.63;101609.44;5123072;27;1149;-73
2023/08/13 02:28:34;;;;;;;;;;;;;;;15.76;84.08;101609.44;5120203;27;1929;-73
2023/08/13 02:30:59;;;;;;;;;;;;;;;15.75;83.84;101613.00;5124227;27;1134;-74
2023/08/13 02:33:24;;;;;;;;;;;;;;;15.75;83.83;101607.78;5119769;27;1283;-74
2023/08/13 02:35:49;;;;;;;;;;;;;;;15.75;84.09;101605.16;5121255;27;1151;-73
2023/08/13 02:38:15;;;;;;;;;;;;;;;15.73;84.10;101599.25;5117607;27;978;-75
2023/08/13 02:40:40;;;;;;;;;;;;;;;15.70;84.47;101594.28;5117576;27;1096;-74
2023/08/13 02:43:05;;;;;;;;;;;;;;;15.68;84.48;101593.63;5119429;27;1128;-73
2023/08/13 02:45:30;;;;;;;;;;;;;;;15.70;84.47;101594.28;5098205;28;1156;-74
2023/08/13 02:47:57;;;;;;;;;;;;;;;15.68;84.44;101591.00;5116649;27;1897;-73
2023/08/13 02:50:22;;;;;;;;;;;;;;;15.65;84.96;101599.13;5092171;28;1220;-73
2023/08/13 02:52:48;;;;;;;;;;;;;;;15.65;84.41;101596.50;5094908;28;1291;-73
2023/08/13 02:55:13;;;;;;;;;;;;;;;15.66;84.90;101598.19;5112640;27;1175;-73
2023/08/13 02:57:38;;;;;;;;;;;;;;;15.66;84.43;101598.19;5112093;27;1120;-74
2023/08/13 03:00:04;;;;;;;;;;;;;;;15.64;84.88;101589.63;5111433;27;1151;-74
2023/08/13 03:02:29;;;;;;;;;;;;;;;15.64;85.05;101594.84;5106662;27;1168;-73
2023/08/13 03:04:54;;;;;;;;;;;;;;;15.64;84.74;101600.09;5083875;27;1186;-74
2023/08/13 03:07:19;;;;;;;;;;;;;;;15.62;84.56;101602.84;5123583;27;1897;-73
2023/08/13 03:09:44;;;;;;;;;;;;;;;15.59;85.01;101597.03;5109059;27;1311;-75
2023/08/13 03:12:09;;;;;;;;;;;;;;;15.57;85.46;101602.41;5125898;27;1137;-73
2023/08/13 03:14:35;;;;;;;;;;;;;;;15.59;85.17;101597.03;5125323;27;1089;-74
2023/08/13 03:17:00;;;;;;;;;;;;;;;15.57;85.08;101604.19;5107815;27;1315;-73
2023/08/13 03:19:25;;;;;;;;;;;;;;;15.55;85.69;101596.50;5106955;27;1270;-73
2023/08/13 03:21:50;;;;;;;;;;;;;;;15.55;84.90;101606.13;5127477;27;1074;-73
2023/08/13 03:24:15;;;;;;;;;;;;;;;15.52;85.63;101601.16;5122477;27;1058;-73
2023/08/13 03:26:41;;;;;;;;;;;;;;;15.51;85.39;101599.53;5105585;27;1412;-75
2023/08/13 03:29:06;;;;;;;;;;;;;;;15.49;85.81;101599.66;5106963;27;1890;-73
2023/08/13 03:31:31;;;;;;;;;;;;;;;15.50;85.84;101592.66;5121308;27;1073;-74
2023/08/13 03:33:56;;;;;;;;;;;;;;;15.49;85.98;101591.00;5123523;27;1148;-73
2023/08/13 03:36:21;;;;;;;;;;;;;;;15.47;86.17;101590.28;5121154;27;1106;-74
2023/08/13 03:38:47;;;;;;;;;;;;;;;15.46;86.16;101591.25;5119915;27;1163;-74
2023/08/13 03:41:12;;;;;;;;;;;;;;;15.42;85.88;101590.69;5121179;27;1093;-74
2023/08/13 03:43:37;;;;;;;;;;;;;;;15.41;86.58;101589.88;5099547;28;1161;-73
2023/08/13 03:46:02;;;;;;;;;;;;;;;15.40;86.59;101595.25;5118142;27;1151;-73
2023/08/13 03:48:27;;;;;;;;;;;;;;;15.37;86.81;101598.97;5114697;27;1893;-73
2023/08/13 03:50:53;;;;;;;;;;;;;;;15.36;86.64;101596.47;5113970;27;1031;-73
2023/08/13 03:53:22;;;;;;;;;;;;;;;15.36;86.43;101592.06;5114670;27;1160;-75
2023/08/13 03:55:47;;;;;;;;;;;;;;;15.35;87.02;101600.88;5091838;28;1425;-74
2023/08/13 03:58:12;;;;;;;;;;;;;;;15.34;86.88;101609.69;5110361;27;1044;-72
2023/08/13 04:00:37;;;;;;;;;;;;;;;15.34;86.86;101604.47;5091021;28;1230;-74
2023/08/13 04:03:03;;;;;;;;;;;;;;;15.32;87.08;101601.19;5109825;27;1135;-73
2023/08/13 04:05:28;;;;;;;;;;;;;;;15.30;87.56;101603.09;5091136;27;1198;-74
2023/08/13 04:07:53;;;;;;;;;;;;;;;15.29;87.26;101601.44;5108362;28;1910;-74
2023/08/13 04:10:18;;;;;;;;;;;;;;;15.27;87.28;101598.16;5101324;27;1137;-74
2023/08/13 04:12:44;;;;;;;;;;;;;;;15.26;87.35;101600.91;5110463;27;1168;-73
2023/08/13 04:15:09;;;;;;;;;;;;;;;15.24;87.58;101608.84;5129450;27;1165;-74
2023/08/13 04:17:34;;;;;;;;;;;;;;;15.24;87.90;101606.25;5127323;27;1259;-73
2023/08/13 04:19:59;;;;;;;;;;;;;;;15.25;87.91;101607.88;5128544;27;1086;-73
2023/08/13 04:22:25;;;;;;;;;;;;;;;15.27;87.89;101613.00;5124361;27;1078;-73
2023/08/13 04:24:50;;;;;;;;;;;;;;;15.27;87.90;101598.16;5125257;27;1081;-73
2023/08/13 04:27:18;;;;;;;;;;;;;;;15.27;87.96;101602.56;5123437;27;1897;-74
2023/08/13 04:29:43;;;;;;;;;;;;;;;15.26;87.80;101596.50;5122483;27;1088;-74
2023/08/13 04:32:08;;;;;;;;;;;;;;;15.27;88.30;101598.16;5123283;27;1007;-73
2023/08/13 04:34:34;;;;;;;;;;;;;;;15.29;88.60;101606.66;5119519;27;1086;-74
2023/08/13 04:36:59;;;;;;;;;;;;;;;15.28;88.67;101605.03;5122476;27;1159;-73
2023/08/13 04:39:24;;;;;;;;;;;;;;;15.26;88.44;101606.94;5121228;27;1090;-73
2023/08/13 04:41:49;;;;;;;;;;;;;;;15.25;88.71;101597.44;5101664;28;1215;-74
2023/08/13 04:44:14;;;;;;;;;;;;;;;15.25;88.69;101594.81;5103006;28;1150;-73
2023/08/13 04:46:40;;;;;;;;;;;;;;;15.25;88.85;101589.59;5112800;28;1075;-75
2023/08/13 04:49:05;;;;;;;;;;;;;;;15.26;88.94;101595.69;5098749;28;1898;-74
2023/08/13 04:51:30;;;;;;;;;;;;;;;15.26;88.32;101596.50;5094633;28;1141;-73
2023/08/13 04:53:55;;;;;;;;;;;;;;;15.26;88.92;101596.50;5112679;28;1132;-73
2023/08/13 04:56:20;;;;;;;;;;;;;;;15.28;89.11;101599.78;5112430;28;1046;-74
2023/08/13 04:58:46;;;;;;;;;;;;;;;15.30;89.31;101613.53;5107943;28;973;-73
2023/08/13 05:01:11;;;;;;;;;;;;;;;15.29;88.65;101606.66;5111457;28;1092;-73
2023/08/13 05:03:37;;;;;;;;;;;;;;;15.30;89.12;101600.47;5110181;28;947;-74
2023/08/13 05:06:02;;;;;;;;;;;;;;;15.30;88.81;101603.09;5110622;28;1156;-73
2023/08/13 05:08:27;;;;;;;;;;;;;;;15.31;89.75;101599.53;5111122;28;1947;-74
2023/08/13 05:10:52;;;;;;;;;;;;;;;15.33;89.43;101602.00;5110864;28;1108;-73
2023/08/13 05:13:18;;;;;;;;;;;;;;;15.33;89.40;101602.81;5110842;28;1156;-73
2023/08/13 05:15:43;;;;;;;;;;;;;;;15.36;89.63;101599.09;5110019;28;1107;-73
2023/08/13 05:18:08;;;;;;;;;;;;;;;15.37;89.66;101598.97;5108293;28;1090;-74
2023/08/13 05:20:33;;;;;;;;;;;;;;;15.38;89.13;101594.56;5128235;28;1129;-73
2023/08/13 05:22:58;;;;;;;;;;;;;;;15.38;89.63;101595.41;5109947;28;1506;-72
2023/08/13 05:25:24;;;;;;;;;;;;;;;15.40;89.74;101598.69;5126546;28;1215;-74
2023/08/13 05:27:50;;;;;;;;;;;;;;;15.42;89.62;101601.16;5126691;28;1972;-73
2023/08/13 05:30:15;;;;;;;;;;;;;;;15.46;90.07;101606.94;5127069;28;1077;-73
2023/08/13 05:32:40;;;;;;;;;;;;;;;15.45;89.94;101590.44;5105346;28;1275;-74
2023/08/13 05:35:06;;;;;;;;;;;;;;;15.47;89.53;101603.38;5106918;28;1304;-73
2023/08/13 05:37:31;;;;;;;;;;;;;;;15.47;89.78;101598.13;5122579;28;1109;-74
2023/08/13 05:39:56;;;;;;;;;;;;;;;15.48;89.42;101594.56;5104891;28;1423;-73
2023/08/13 05:42:21;;;;;;;;;;;;;;;15.50;89.73;101603.09;5104431;28;1465;-73
2023/08/13 05:44:47;;;;;;;;;;;;;;;15.52;89.85;101602.00;5119463;28;1089;-73
2023/08/13 05:47:12;;;;;;;;;;;;;;;15.54;90.05;101604.47;5119654;28;1894;-74
2023/08/13 05:49:37;;;;;;;;;;;;;;;15.59;90.13;101607.50;5115788;28;1148;-74
2023/08/13 05:52:02;;;;;;;;;;;;;;;15.63;89.84;101614.94;5115443;28;1088;-73
2023/08/13 05:54:27;;;;;;;;;;;;;;;15.66;90.18;101613.88;5095965;28;1331;-73
2023/08/13 05:56:53;;;;;;;;;;;;;;;15.70;89.65;101620.44;5112083;28;1073;-73
2023/08/13 05:59:19;;;;;;;;;;;;;;;15.74;89.83;101616.59;5111985;28;1053;-73
2023/08/13 06:01:44;;;;;;;;;;;;;;;15.78;89.83;101612.75;5093078;28;1242;-74
2023/08/13 06:04:09;;;;;;;;;;;;;;;15.83;89.98;101618.38;5115984;27;997;-75
2023/08/13 06:06:34;;;;;;;;;;;;;;;15.89;90.14;101615.22;5117461;27;1097;-73
2023/08/13 06:09:01;;;;;;;;;;;;;;;15.92;89.51;101625.38;5115822;27;1901;-74
2023/08/13 06:11:26;;;;;;;;;;;;;;;15.98;88.99;101631.03;5116713;27;1140;-74
2023/08/13 06:13:51;;;;;;;;;;;;;;;16.01;89.52;101620.28;5096602;28;1274;-73
2023/08/13 06:16:16;;;;;;;;;;;;;;;16.06;89.24;101631.16;5114418;27;1100;-74
2023/08/13 06:18:41;;;;;;;;;;;;;;;16.10;90.10;101632.50;5113492;27;1345;-74
2023/08/13 06:21:07;;;;;;;;;;;;;;;16.14;89.28;101633.88;5113063;27;957;-73
2023/08/13 06:23:32;;;;;;;;;;;;;;;16.22;89.63;101631.38;5113379;27;1113;-73
2023/08/13 06:25:57;;;;;;;;;;;;;;;16.28;89.29;101636.03;5132164;27;1152;-73
2023/08/13 06:28:22;;;;;;;;;;;;;;;16.34;89.18;101627.59;5131106;27;1921;-74
2023/08/13 06:30:48;;;;;;;;;;;;;;;16.40;89.47;101627.06;5129835;27;1044;-73
2023/08/13 06:33:13;;;;;;;;;;;;;;;16.46;88.90;101634.34;5130224;27;1061;-74
2023/08/13 06:35:39;;;;;;;;;;;;;;;16.52;89.53;101629.50;5127454;27;1113;-73
2023/08/13 06:38:05;;;;;;;;;;;;;;;16.57;88.71;101635.09;5109962;27;1194;-74
2023/08/13 06:40:31;;;;;;;;;;;;;;;16.62;88.89;101633.69;5125793;27;1160;-74
2023/08/13 06:42:57;;;;;;;;;;;;;;;16.67;88.97;101623.63;5124983;27;1080;-73
2023/08/13 06:45:26;;;;;;;;;;;;;;;16.75;89.03;101632.59;5124002;27;1129;-73
2023/08/13 06:47:51;;;;;;;;;;;;;;;16.83;88.74;101627.44;5117381;27;1870;-74
2023/08/13 06:50:16;;;;;;;;;;;;;;;16.93;88.57;101630.84;5104358;27;1270;-73
2023/08/13 06:52:41;;;;;;;;;;;;;;;17.06;88.32;101623.44;5119285;27;1110;-74
2023/08/13 06:55:07;;;;;;;;;;;;;;;17.18;88.22;101629.28;5118982;27;1103;-73
2023/08/13 06:57:32;;;;;;;;;;;;;;;17.30;87.95;101622.84;5119724;27;1148;-73
2023/08/13 06:59:57;;;;;;;;;;;;;;;17.40;88.40;101622.78;5091108;28;1271;-73
2023/08/13 07:02:22;;;;;;;;;;;;;;;17.46;88.44;101617.75;5119905;27;1080;-73
2023/08/13 07:04:47;;;;;;;;;;;;;;;17.53;88.30;101624.03;5099398;27;1194;-73
2023/08/13 07:07:13;;;;;;;;;;;;;;;17.62;87.85;101621.50;5117558;27;1889;-73
2023/08/13 07:09:38;;;;;;;;;;;;;;;17.68;88.08;101620.91;5118151;27;1113;-74
2023/08/13 07:12:03;;;;;;;;;;;;;;;17.76;87.89;101619.16;5115771;27;1104;-73
2023/08/13 07:14:29;;;;;;;;;;;;;;;17.82;87.24;101617.75;5116193;27;1092;-75
2023/08/13 07:16:54;;;;;;;;;;;;;;;17.85;87.41;101620.06;5113869;27;1108;-73
2023/08/13 07:19:19;;;;;;;;;;;;;;;17.91;87.11;101624.69;5113748;27;1160;-74
2023/08/13 07:21:44;;;;;;;;;;;;;;;17.96;87.04;101629.50;5113674;27;1114;-74
2023/08/13 07:24:10;;;;;;;;;;;;;;;18.01;87.02;101633.31;5112261;27;1131;-73
2023/08/13 07:26:35;;;;;;;;;;;;;;;18.08;86.70;101622.19;5093190;27;1203;-75
2023/08/13 07:29:00;;;;;;;;;;;;;;;18.14;87.22;101627.66;5106968;28;1975;-73
2023/08/13 07:31:25;;;;;;;;;;;;;;;18.22;87.07;101629.47;5105120;27;1202;-73
2023/08/13 07:33:52;;;;;;;;;;;;;;;18.30;86.76;101627.75;5129300;27;1077;-73
2023/08/13 07:36:17;;;;;;;;;;;;;;;18.37;86.97;101622.69;5128449;27;1105;-73
2023/08/13 07:38:42;;;;;;;;;;;;;;;18.45;86.76;101625.34;5126110;27;1089;-75
2023/08/13 07:41:07;;;;;;;;;;;;;;;18.53;87.19;101627.19;5106766;27;1262;-74
2023/08/13 07:43:32;;;;;;;;;;;;;;;18.58;86.64;101628.38;5124254;27;1109;-73
2023/08/13 07:45:58;;;;;;;;;;;;;;;18.66;86.20;101632.00;5121935;27;1091;-74
2023/08/13 07:48:23;;;;;;;;;;;;;;;18.72;86.15;101631.41;5123086;27;1902;-74
2023/08/13 07:50:50;;;;;;;;;;;;;;;18.81;86.06;101635.72;5098490;27;1519;-74
2023/08/13 07:53:15;;;;;;;;;;;;;;;18.90;85.42;101637.38;5110424;27;947;-74
2023/08/13 07:55:40;;;;;;;;;;;;;;;18.93;85.98;101623.09;5101829;27;1307;-74
2023/08/13 07:58:05;;;;;;;;;;;;;;;18.99;85.76;101633.78;5119066;27;1155;-73
2023/08/13 08:00:31;;;;;;;;;;;;;;;19.03;85.19;101632.47;5119184;27;1075;-74
2023/08/13 08:02:56;;;;;;;;;;;;;;;19.08;85.04;101640.69;5100622;28;1353;-74
2023/08/13 08:05:21;;;;;;;;;;;;;;;19.13;85.09;101628.88;5121299;27;997;-74
2023/08/13 08:07:46;;;;;;;;;;;;;;;19.15;84.75;101637.44;5099935;27;1910;-74
2023/08/13 08:10:11;;;;;;;;;;;;;;;19.18;84.63;101631.84;5117625;27;1099;-73
2023/08/13 08:12:37;;;;;;;;;;;;;;;19.20;84.69;101624.63;5100247;27;1336;-74
2023/08/13 08:15:03;;;;;;;;;;;;;;;19.24;84.54;101631.22;5115805;27;1088;-73
2023/08/13 08:17:28;;;;;;;;;;;;;;;19.26;84.73;101631.84;5116298;27;1147;-73
2023/08/13 08:19:54;;;;;;;;;;;;;;;19.30;84.93;101630.56;5114562;27;1109;-74
2023/08/13 08:22:19;;;;;;;;;;;;;;;19.34;84.45;101627.44;5095424;28;1736;-74
2023/08/13 08:24:44;;;;;;;;;;;;;;;19.38;84.37;101627.91;5113787;27;1107;-74
2023/08/13 08:27:09;;;;;;;;;;;;;;;19.40;84.23;101620.72;5092740;28;1937;-74
2023/08/13 08:29:35;;;;;;;;;;;;;;;19.48;84.33;101623.34;5112174;27;1100;-73
2023/08/13 08:32:00;;;;;;;;;;;;;;;19.57;84.10;101622.34;5091102;28;1466;-73
2023/08/13 08:34:26;;;;;;;;;;;;;;;19.70;84.21;101621.06;5110160;28;1057;-74
2023/08/13 08:36:51;;;;;;;;;;;;;;;19.80;83.69;101624.34;5096870;28;1084;-74
2023/08/13 08:39:18;;;;;;;;;;;;;;;19.84;82.83;101623.00;5096809;27;1234;-74
2023/08/13 08:41:45;;;;;;;;;;;;;;;19.88;83.08;101619.88;5125338;27;1089;-74
2023/08/13 08:44:13;;;;;;;;;;;;;;;19.96;82.97;101621.72;5125913;27;1113;-74
2023/08/13 08:46:39;;;;;;;;;;;;;;;20.04;82.96;101619.03;5124680;27;1097;-74
2023/08/13 08:49:05;;;;;;;;;;;;;;;20.10;82.52;101618.38;5123630;27;1969;-74
2023/08/13 08:51:30;;;;;;;;;;;;;;;20.17;82.50;101624.59;5125199;28;1085;-75
2023/08/13 08:53:56;;;;;;;;;;;;;;;20.21;81.68;101629.53;5103476;28;1350;-74
2023/08/13 08:56:22;;;;;;;;;;;;;;;20.22;81.32;101621.47;5124800;28;1176;-75
2023/08/13 08:58:47;;;;;;;;;;;;;;;20.25;81.77;101620.31;5098959;28;1242;-73
2023/08/13 09:01:12;;;;;;;;;;;;;;;20.28;81.56;101619.97;5122860;28;1147;-74
2023/08/13 09:03:37;;;;;;;;;;;;;;;20.31;81.38;101614.38;5104753;28;1143;-74
2023/08/13 09:06:03;;;;;;;;;;;;;;;20.32;81.16;101605.47;5119583;28;1140;-75
2023/08/13 09:08:28;;;;;;;;;;;;;;;20.35;80.80;101607.75;5121594;28;1882;-73
2023/08/13 09:10:53;;;;;;;;;;;;;;;20.39;80.45;101609.06;5119128;28;1097;-74
2023/08/13 09:13:18;;;;;;;;;;;;;;;20.36;80.21;101606.78;5118952;28;1081;-74
2023/08/13 09:15:44;;;;;;;;;;;;;;;20.37;80.38;101605.78;5100744;28;1090;-74
2023/08/13 09:18:10;;;;;;;;;;;;;;;20.39;80.08;101601.16;5116300;28;1080;-74
2023/08/13 09:20:42;;;;;;;;;;;;;;;20.42;80.00;101595.56;5118427;28;1104;-74
2023/08/13 09:23:07;;;;;;;;;;;;;;;20.48;79.21;101594.91;5109817;28;1119;-74
2023/08/13 09:25:32;;;;;;;;;;;;;;;20.47;79.10;101593.25;5115508;28;1104;-73
2023/08/13 09:27:57;;;;;;;;;;;;;;;20.51;79.06;101599.81;5112545;28;1969;-74
2023/08/13 09:30:28;;;;;;;;;;;;;;;20.52;78.04;101596.19;5112508;28;1076;-74
2023/08/13 09:32:53;;;;;;;;;;;;;;;20.53;77.71;101595.22;5091275;28;1360;-74
2023/08/13 09:35:18;;;;;;;;;;;;;;;20.55;76.98;101595.03;5109781;28;1200;-74
2023/08/13 09:37:43;;;;;;;;;;;;;;;20.58;77.11;101590.22;5102307;27;1139;-74
2023/08/13 09:40:09;;;;;;;;;;;;;;;20.63;76.84;101587.91;5110768;27;1171;-75
2023/08/13 09:42:35;;;;;;;;;;;;;;;20.73;76.90;101586.88;5110840;28;1142;-73
2023/08/13 09:45:20;;;;;;;;;;;;;;;20.86;76.60;101571.31;5086014;27;1437;-74
2023/08/13 09:47:48;;;;;;;;;;;;;;;20.86;75.77;101581.84;5109162;27;1898;-74
2023/08/13 09:50:16;;;;;;;;;;;;;;;20.93;76.08;101573.09;5131049;27;1026;-74
2023/08/13 09:52:43;;;;;;;;;;;;;;;21.06;75.83;101567.22;5130785;27;1086;-74
2023/08/13 09:55:12;;;;;;;;;;;;;;;21.09;75.29;101566.84;5109349;27;1250;-75
2023/08/13 09:57:38;;;;;;;;;;;;;;;21.09;75.02;101566.84;5129135;27;1125;-75
2023/08/13 10:00:04;;;;;;;;;;;;;;;21.09;74.67;101561.56;5102155;27;1194;-74
2023/08/13 10:02:29;;;;;;;;;;;;;;;21.07;74.88;101563.59;5128642;27;1169;-73
2023/08/13 10:04:55;;;;;;;;;;;;;;;21.07;74.35;101558.31;5126184;27;1073;-74
2023/08/13 10:07:22;;;;;;;;;;;;;;;21.09;74.41;101551.03;5125818;27;1964;-74
2023/08/13 10:09:47;;;;;;;;;;;;;;;21.16;73.82;101565.19;5125981;27;1073;-74
2023/08/13 10:12:13;;;;;;;;;;;;;;;21.19;72.71;101556.06;5104632;27;1154;-74
2023/08/13 10:14:38;;;;;;;;;;;;;;;21.20;73.72;101563.81;5125109;27;1129;-74
2023/08/13 10:17:05;;;;;;;;;;;;;;;21.30;73.89;101557.50;5120711;27;1176;-74
2023/08/13 10:19:31;;;;;;;;;;;;;;;21.32;73.39;101563.41;5122416;27;973;-73
2023/08/13 10:21:57;;;;;;;;;;;;;;;21.28;72.74;101564.75;5102439;27;1297;-74
2023/08/13 10:24:22;;;;;;;;;;;;;;;21.29;73.19;101561.13;5119058;27;986;-74
2023/08/13 10:26:47;;;;;;;;;;;;;;;21.32;73.11;101561.59;5119223;27;1188;-74
2023/08/13 10:29:13;;;;;;;;;;;;;;;21.35;72.63;101555.97;5097128;28;1902;-73
2023/08/13 10:31:38;;;;;;;;;;;;;;;21.40;72.97;101564.19;5098437;27;1300;-75
2023/08/13 10:34:06;;;;;;;;;;;;;;;21.50;72.23;101558.63;5113908;27;1133;-74
2023/08/13 10:36:52;;;;;;;;;;;;;;;21.54;72.53;101559.91;5094296;28;2741;-73
2023/08/13 10:39:34;;;;;;;;;;;;;;;21.64;72.65;101551.75;5105661;27;1092;-75
2023/08/13 10:42:01;;;;;;;;;;;;;;;21.71;72.30;101550.84;5113358;27;1247;-74
2023/08/13 10:44:28;;;;;;;;;;;;;;;21.78;71.80;101555.41;5093526;28;1308;-74
2023/08/13 10:46:53;;;;;;;;;;;;;;;21.78;71.56;101550.13;5111259;27;1100;-75
2023/08/13 10:49:19;;;;;;;;;;;;;;;21.81;71.27;101549.78;5111713;27;1894;-74
2023/08/13 10:51:47;;;;;;;;;;;;;;;21.85;70.83;101545.75;5084293;28;1423;-73
2023/08/13 10:54:13;;;;;;;;;;;;;;;21.93;71.04;101537.75;5129628;27;993;-73
2023/08/13 10:56:42;;;;;;;;;;;;;;;22.02;71.21;101534.00;5128445;27;1153;-74
2023/08/13 10:59:07;;;;;;;;;;;;;;;22.13;70.20;101535.38;5119938;27;1086;-73
2023/08/13 11:01:32;;;;;;;;;;;;;;;22.23;70.20;101538.56;5128209;27;1164;-74
2023/08/13 11:03:58;;;;;;;;;;;;;;;22.39;70.54;101534.91;5126030;27;1089;-74
2023/08/13 11:06:24;;;;;;;;;;;;;;;22.51;69.89;101538.69;5109030;27;1342;-74
2023/08/13 11:08:50;;;;;;;;;;;;;;;22.48;68.65;101529.34;5126679;27;1897;-75
2023/08/13 11:11:16;;;;;;;;;;;;;;;22.43;68.98;101533.53;5106476;27;1302;-74
2023/08/13 11:13:41;;;;;;;;;;;;;;;22.46;68.76;101527.88;5126173;27;1101;-74
2023/08/13 11:16:06;;;;;;;;;;;;;;;22.46;67.59;101520.75;5123044;27;1136;-73
2023/08/13 11:18:31;;;;;;;;;;;;;;;22.43;67.92;101523.78;5123491;27;1111;-74
2023/08/13 11:20:57;;;;;;;;;;;;;;;22.44;68.05;101536.00;5103027;27;1293;-74
2023/08/13 11:23:22;;;;;;;;;;;;;;;22.47;67.71;101529.50;5118717;27;1093;-74
2023/08/13 11:25:48;;;;;;;;;;;;;;;22.53;67.75;101536.69;5101115;27;1373;-74
2023/08/13 11:28:20;;;;;;;;;;;;;;;22.61;67.28;101531.31;5115958;27;1969;-74
2023/08/13 11:30:46;;;;;;;;;;;;;;;22.64;67.04;101530.91;5118118;27;1084;-74
2023/08/13 11:33:11;;;;;;;;;;;;;;;22.66;66.99;101534.22;5115052;27;1105;-74
2023/08/13 11:35:37;;;;;;;;;;;;;;;22.66;66.53;101536.84;5115618;27;1108;-73
2023/08/13 11:38:02;;;;;;;;;;;;;;;22.64;67.31;101530.91;5116168;27;1157;-74
2023/08/13 11:40:28;;;;;;;;;;;;;;;22.66;66.86;101531.56;5095962;28;1203;-75
2023/08/13 11:42:57;;;;;;;;;;;;;;;22.71;65.49;101530.97;5115737;27;1100;-74
2023/08/13 11:45:26;;;;;;;;;;;;;;;22.76;66.49;101531.22;5114400;27;1021;-74
2023/08/13 11:47:52;;;;;;;;;;;;;;;22.80;65.98;101525.38;5095805;27;1867;-74
2023/08/13 11:50:18;;;;;;;;;;;;;;;22.78;64.97;101524.75;5105512;27;978;-74
2023/08/13 11:52:43;;;;;;;;;;;;;;;22.73;65.73;101528.97;5112155;27;1100;-73
2023/08/13 11:55:09;;;;;;;;;;;;;;;22.71;64.99;101523.88;5110426;27;1092;-74
2023/08/13 11:57:34;;;;;;;;;;;;;;;22.72;65.43;101522.88;5104831;28;1100;-74
2023/08/13 12:00:02;;;;;;;;;;;;;;;22.73;64.96;101524.50;5116245;27;1141;-74
2023/08/13 12:02:27;;;;;;;;;;;;;;;22.77;64.13;101531.06;5111560;27;1367;-74
2023/08/13 12:04:53;;;;;;;;;;;;;;;22.72;64.16;101517.59;5111103;27;1176;-73
2023/08/13 12:07:19;;;;;;;;;;;;;;;22.63;63.95;101523.97;5126596;27;1901;-74
2023/08/13 12:09:44;;;;;;;;;;;;;;;22.61;64.67;101526.00;5109902;27;1208;-74
2023/08/13 12:12:09;;;;;;;;;;;;;;;22.64;64.79;101524.81;5126031;27;1133;-73
2023/08/13 12:14:41;;;;;;;;;;;;;;;22.66;65.17;101518.34;5125947;27;1141;-74
2023/08/13 12:17:06;;;;;;;;;;;;;;;22.69;64.85;101517.94;5104386;27;1229;-74
2023/08/13 12:19:31;;;;;;;;;;;;;;;22.72;64.53;101511.47;5122336;27;1041;-74
2023/08/13 12:21:57;;;;;;;;;;;;;;;22.68;64.37;101516.31;5103354;27;1196;-74
2023/08/13 12:24:22;;;;;;;;;;;;;;;22.69;64.62;101520.59;5119531;27;1096;-75
2023/08/13 12:26:47;;;;;;;;;;;;;;;22.67;64.73;101514.69;5102930;27;1475;-74
2023/08/13 12:29:13;;;;;;;;;;;;;;;22.67;64.81;101512.03;5118857;27;1917;-74
2023/08/13 12:31:38;;;;;;;;;;;;;;;22.70;64.80;101514.28;5119157;27;1143;-73
2023/08/13 12:34:04;;;;;;;;;;;;;;;22.67;64.77;101512.03;5118615;27;1069;-75
2023/08/13 12:36:29;;;;;;;;;;;;;;;22.67;65.08;101519.97;5115915;27;1084;-74
2023/08/13 12:38:54;;;;;;;;;;;;;;;22.66;65.14;101520.97;5098837;27;1399;-74
2023/08/13 12:41:19;;;;;;;;;;;;;;;22.64;65.47;101514.22;5097548;28;1400;-74